Greenwood, NE (68366)

6:02 AM CDT on August 29, 2015 (GMT -0500)
County Line | | Change Station
CLOSE
Current Station
Personal Weather Station
Location: Waverly, NE
Elevation: 1175 ft
Nearby Weather Stations

Elev 1175 ft 40.93 °N, 96.46 °W | Updated 12 seconds ago

Overcast
Overcast
61.9 °F
Feels Like 61.9 °F
N
7.4
Wind Variable Wind from NNW
Gusts 9.8 mph

Today
High -- | Low -- °F
--% Chance of Precip.
Yesterday
High -- | Low -- °F
Precip. -- in
6:49 AM 8:03 PM
Full, 100% visible
Pressure 30.01 in
Visibility 2.0 miles
Clouds Overcast 400 ft
Dew Point 61 °F
Humidity 98%
Rainfall 0.00 in
Snow Depth Not available.
UV 0.0 out of 12
Pollen 6.40 out of 12
Air Quality Not available.
Flu Activity Not available.
METAR KLNK 291054Z 01008KT 2SM BR OVC004 17/16 A3003 RMK AO2 CIG 002V008 SLP163 T01670161
Pressure 30.01 in
Visibility 2.0 miles
Clouds Overcast 400 ft
Dew Point 61 °F
Humidity 98%
Rainfall 0.00 in
Snow Depth Not available.
UV 0.0 out of 12
Pollen 6.40 out of 12
Air Quality Not available.
Flu Activity Not available.
METAR KLNK 291054Z 01008KT 2SM BR OVC004 17/16 A3003 RMK AO2 CIG 002V008 SLP163 T01670161

10-Day Weather Forecast

×

Almanac

Astronomy

Aug. 29, 2015 Rise Set
Actual Time
Civil Twilight
Nautical Twilight
Astronomical Twilight
Moon
Length of Visible Light
Length of Day
Tomorrow will be .
, % of the Moon is Illuminated

Today's Extremes

State Highs State Lows

Community

WunderPhotos

Upload Photos

1,850,651 photos uploaded!

WunderBlogs® & News

Nearby

Air Quality

  Air Quality AQ Index Pollutant
Not available.

Snow Depth

Station Depth Elevation

Earthquake Activity

City Distance Mag. Time & Date
Minimum magnitude displayed is 2.5.

Coastal Water Temperatures

Place Temperature

Stations

Nearby Weather Stations

Station Location Temp. Windchill Dew Point Humidity Wind Precip. Elev Updated Type